Time;durP1;ratioP1;P1;durP2;ratioP2;P2;SDS_P1;SDS_P2;PMS_P1;PMS_P2;Temp;Humidity;BMP_temperature;BMP_pressure;BME280_temperature;BME280_humidity;BME280_pressure;Samples;Min_cycle;Max_cycle;Signal;HPM_P1;HPM_P2
2022/12/02 00:00:12;;;;;;;174.32;107.40;;;;;;;16.35;76.56;98886.84;4946672;29;20360;-62
2022/12/02 00:03:01;;;;;;;171.98;105.40;;;;;;;16.35;76.48;98878.72;4948379;28;20424;-62
2022/12/02 00:05:54;;;;;;;177.25;108.68;;;;;;;16.21;76.40;98873.66;4930109;29;20087;-64
2022/12/02 00:08:49;;;;;;;178.93;108.90;;;;;;;16.18;76.69;98879.59;4942576;28;20051;-64
2022/12/02 00:11:30;;;;;;;178.50;108.03;;;;;;;16.04;77.25;98891.78;4965991;28;20281;-62
2022/12/02 00:14:34;;;;;;;167.35;104.88;;;;;;;15.99;77.43;98897.09;4967084;28;20129;-63
2022/12/02 00:17:10;;;;;;;174.68;105.60;;;;;;;16.02;77.30;98893.91;4966560;28;20054;-63
2022/12/02 00:20:05;;;;;;;191.15;110.43;;;;;;;16.11;77.35;98894.31;4970117;28;20054;-63
2022/12/02 00:22:40;;;;;;;168.10;108.95;;;;;;;16.18;77.00;98901.25;4969489;28;20483;-62
2022/12/02 00:25:36;;;;;;;171.85;106.97;;;;;;;16.13;75.82;98905.75;4970014;28;20051;-63
2022/12/02 00:28:12;;;;;;;181.55;110.25;;;;;;;16.00;77.05;98901.47;4969728;28;20055;-63
2022/12/02 00:31:08;;;;;;;;;;;;;;;16.16;76.74;98910.66;4969890;28;20141;-63
2022/12/02 00:33:43;;;;;;;181.20;105.55;;;;;;;16.07;76.32;98907.56;4969370;28;19930;-64
2022/12/02 00:36:39;;;;;;;181.18;105.88;;;;;;;15.98;76.85;98911.72;4969607;28;20039;-64
2022/12/02 00:39:15;;;;;;;179.52;108.85;;;;;;;15.92;77.22;98913.53;4968917;28;20050;-64
2022/12/02 00:42:05;;;;;;;175.30;109.03;;;;;;;16.01;77.56;98916.63;4952370;28;20072;-63
2022/12/02 00:48:01;;;;;;;174.18;108.22;;;;;;;16.10;76.80;98915.16;4952020;28;20463;-62
2022/12/02 00:50:50;;;;;;;183.98;110.40;;;;;;;16.04;77.13;98922.38;4969229;28;20053;-63
2022/12/02 00:53:32;;;;;;;186.13;113.60;;;;;;;16.05;75.88;98925.94;4952073;28;20777;-64
2022/12/02 00:56:21;;;;;;;190.45;114.38;;;;;;;15.76;76.19;98912.44;4968825;28;20365;-64
2022/12/02 00:59:04;;;;;;;178.95;109.13;;;;;;;15.78;77.83;98921.13;4952997;28;20154;-63
2022/12/02 01:01:53;;;;;;;184.18;111.57;;;;;;;15.86;77.12;98919.91;4954409;28;20094;-63
2022/12/02 01:04:35;;;;;;;192.73;115.65;;;;;;;15.92;76.57;98921.63;4935308;28;20675;-63
2022/12/02 01:07:24;;;;;;;190.18;116.40;;;;;;;15.76;76.85;98920.56;4949734;28;20070;-64
2022/12/02 01:10:38;;;;;;;195.00;116.68;;;;;;;15.69;77.35;98922.53;4950023;28;20487;-63
2022/12/02 01:13:46;;;;;;;195.52;116.10;;;;;;;15.67;78.04;98935.50;4952855;28;20062;-63
2022/12/02 01:16:47;;;;;;;201.23;113.82;;;;;;;15.75;77.38;98945.94;4948985;29;20149;-63
2022/12/02 01:19:56;;;;;;;192.32;114.97;;;;;;;15.65;77.00;98949.25;4929880;29;20655;-63
2022/12/02 01:22:58;;;;;;;183.23;114.78;;;;;;;15.52;77.10;98951.44;4946922;29;20050;-62
2022/12/02 01:26:07;;;;;;;197.00;115.95;;;;;;;15.62;77.41;98959.75;4947928;29;20505;-63
2022/12/02 01:29:16;;;;;;;198.82;113.40;;;;;;;15.53;77.74;98950.34;4949525;28;20102;-63
2022/12/02 01:32:28;;;;;;;185.98;114.15;;;;;;;15.57;77.99;98963.19;4937468;28;20079;-63
2022/12/02 01:35:37;;;;;;;200.10;117.03;;;;;;;15.49;77.24;98970.84;4941974;28;20051;-63
2022/12/02 01:38:46;;;;;;;202.05;120.18;;;;;;;15.35;77.14;98965.69;4951755;28;20091;-63
2022/12/02 01:41:49;;;;;;;196.48;115.25;;;;;;;15.54;77.14;98966.34;4956207;28;20490;-62
2022/12/02 01:44:58;;;;;;;184.38;114.55;;;;;;;15.55;77.53;98969.88;4956461;28;20151;-63
2022/12/02 01:48:01;;;;;;;201.85;120.05;;;;;;;15.58;77.62;98977.50;4913555;29;20052;-63
2022/12/02 01:51:12;;;;;;;191.43;117.05;;;;;;;15.59;77.64;98984.56;4942150;29;20050;-63
2022/12/02 01:54:21;;;;;;;199.45;118.65;;;;;;;15.72;77.39;98978.88;4948341;28;20590;-63
2022/12/02 01:57:28;;;;;;;196.63;121.47;;;;;;;15.83;76.89;98975.31;4929020;29;20047;-61
2022/12/02 02:00:37;;;;;;;214.65;124.78;;;;;;;15.87;76.53;98982.97;4928724;29;20051;-61
2022/12/02 02:03:46;;;;;;;211.70;123.40;;;;;;;15.72;76.52;98992.41;4927712;29;20044;-61
2022/12/02 02:06:55;;;;;;;208.52;124.60;;;;;;;15.68;77.15;98993.13;4928111;29;20086;-63
2022/12/02 02:10:04;;;;;;;209.68;125.00;;;;;;;15.77;77.11;98999.84;4915171;29;20036;-62
2022/12/02 02:16:03;;;;;;;217.57;127.07;;;;;;;15.73;78.00;98987.81;4754641;27;9343574;-63
2022/12/02 02:19:14;;;;;;;217.27;127.22;;;;;;;15.93;77.21;98996.34;5060771;28;20053;-63
2022/12/02 02:22:48;;;;;;;221.38;128.48;;;;;;;16.03;76.45;98995.72;5047589;28;20044;-63
2022/12/02 02:25:59;;;;;;;223.70;124.82;;;;;;;16.07;76.21;99002.31;5061821;28;20052;-64
2022/12/02 02:29:02;;;;;;;225.30;126.82;;;;;;;16.11;75.97;99003.47;5028080;28;20037;-64
2022/12/02 02:32:13;;;;;;;224.88;128.70;;;;;;;16.36;75.44;99002.28;5028769;28;20519;-63
2022/12/02 02:35:19;;;;;;;217.65;123.93;;;;;;;16.31;75.57;99011.13;5040142;28;20164;-65
2022/12/02 02:38:30;;;;;;;226.98;127.65;;;;;;;16.38;75.50;99017.19;5041373;28;20040;-63
2022/12/02 02:41:33;;;;;;;220.15;124.80;;;;;;;16.55;75.43;99011.81;5047427;28;20147;-64
2022/12/02 02:44:42;;;;;;;220.25;124.45;;;;;;;16.67;75.59;99019.03;5027731;28;20121;-64
2022/12/02 02:47:54;;;;;;;229.63;124.93;;;;;;;16.90;75.38;99024.31;5036135;28;20055;-64
2022/12/02 02:50:59;;;;;;;214.82;124.18;;;;;;;16.98;73.56;99028.47;5039311;28;20393;-64
2022/12/02 02:54:11;;;;;;;228.18;128.60;;;;;;;17.13;72.59;99031.41;5058665;28;20048;-64
2022/12/02 02:57:15;;;;;;;218.45;124.90;;;;;;;17.16;73.28;99030.94;5079940;28;20052;-64
2022/12/02 03:00:24;;;;;;;214.35;121.60;;;;;;;17.11;74.55;99040.88;5076909;28;20124;-64
2022/12/02 03:03:39;;;;;;;225.73;124.75;;;;;;;17.23;74.19;99049.72;5020794;28;20136;-64
2022/12/02 03:06:44;;;;;;;222.82;128.20;;;;;;;17.50;74.38;99057.16;5045221;28;20126;-64
2022/12/02 03:09:55;;;;;;;229.85;129.30;;;;;;;17.48;73.04;99056.59;5046581;28;20049;-64
2022/12/02 03:13:04;;;;;;;216.60;127.82;;;;;;;17.50;74.55;99059.88;5026451;28;20049;-64
2022/12/02 03:16:09;;;;;;;232.65;134.00;;;;;;;17.72;73.25;99063.41;5060208;28;20056;-64
2022/12/02 03:19:18;;;;;;;235.07;132.63;;;;;;;17.89;72.95;99068.00;5060677;28;20102;-63
2022/12/02 03:22:21;;;;;;;248.82;134.57;;;;;;;17.94;72.49;99070.75;5060331;28;20123;-64
2022/12/02 03:25:30;;;;;;;246.32;136.38;;;;;;;18.30;71.99;99073.88;5056286;28;20045;-64
2022/12/02 03:28:41;;;;;;;254.50;137.55;;;;;;;18.32;72.20;99066.31;5043318;28;20064;-65
2022/12/02 03:31:43;;;;;;;248.13;140.75;;;;;;;18.70;71.88;99069.94;5045982;28;20056;-64
2022/12/02 03:34:52;;;;;;;236.05;139.68;;;;;;;18.88;70.65;99079.66;5047739;28;20041;-64
2022/12/02 03:37:54;;;;;;;252.18;143.48;;;;;;;19.11;70.68;99083.91;5043487;28;20048;-64
2022/12/02 03:41:04;;;;;;;244.70;141.70;;;;;;;19.34;70.66;99075.34;5042473;28;20128;-65
2022/12/02 03:44:06;;;;;;;238.35;138.93;;;;;;;19.58;69.38;99087.72;5048429;28;20052;-64
2022/12/02 03:47:16;;;;;;;253.45;146.48;;;;;;;20.01;67.84;99081.16;5045368;28;20044;-65
2022/12/02 03:50:18;;;;;;;258.63;144.35;;;;;;;20.46;67.04;99084.25;4955982;28;20043;-66
2022/12/02 03:53:29;;;;;;;256.52;149.13;;;;;;;20.65;66.59;99090.84;5051523;28;20755;-64
2022/12/02 03:56:37;;;;;;;260.77;150.68;;;;;;;20.79;65.64;99085.72;5053952;28;20045;-65
2022/12/02 03:59:47;;;;;;;267.08;157.75;;;;;;;21.17;64.16;99097.16;5050807;28;20045;-64
2022/12/02 04:02:49;;;;;;;269.88;159.90;;;;;;;21.50;63.82;99100.41;5055432;28;20060;-64
2022/12/02 04:05:58;;;;;;;268.00;155.80;;;;;;;21.82;62.86;99100.06;5053684;28;20049;-64
2022/12/02 04:09:00;;;;;;;303.23;178.75;;;;;;;21.83;61.71;99092.66;5034632;28;20191;-65
2022/12/02 04:12:10;;;;;;;298.33;183.02;;;;;;;21.89;62.28;99091.53;5052086;28;20049;-65
2022/12/02 04:15:12;;;;;;;309.83;185.48;;;;;;;22.18;62.37;99104.53;5052044;28;20059;-64
2022/12/02 04:18:22;;;;;;;319.42;190.80;;;;;;;22.12;62.98;99105.66;5044046;28;20060;-64
2022/12/02 04:21:24;;;;;;;318.08;196.27;;;;;;;22.23;62.27;99110.00;5054234;28;20194;-64
2022/12/02 04:24:33;;;;;;;322.25;189.63;;;;;;;22.28;61.06;99110.00;5049599;28;20033;-65
2022/12/02 04:27:42;;;;;;;315.73;192.93;;;;;;;22.59;62.64;99112.56;5055207;28;20617;-65
2022/12/02 04:30:51;;;;;;;310.58;193.45;;;;;;;22.57;60.77;99121.03;5058727;28;20056;-63
2022/12/02 04:33:54;;;;;;;336.23;199.43;;;;;;;22.32;62.54;99118.44;5046552;28;20444;-62
2022/12/02 04:37:03;;;;;;;331.73;199.95;;;;;;;22.41;59.12;99119.47;5048065;28;20124;-63
2022/12/02 04:40:07;;;;;;;341.20;200.82;;;;;;;21.75;57.35;99101.44;5049026;28;20048;-63
2022/12/02 04:43:16;;;;;;;325.85;193.95;;;;;;;22.62;55.79;99107.34;5048857;28;20410;-63
2022/12/02 04:46:18;;;;;;;339.77;196.73;;;;;;;22.84;59.44;99111.56;5021734;28;20152;-63
2022/12/02 04:49:27;;;;;;;326.20;182.07;;;;;;;22.95;56.44;99112.28;5051871;28;20829;-64
2022/12/02 04:52:29;;;;;;;316.55;178.50;;;;;;;23.12;57.14;99107.25;5050235;28;20059;-63
2022/12/02 04:55:38;;;;;;;270.58;154.98;;;;;;;22.96;55.75;99113.94;5051269;28;20041;-63
2022/12/02 04:58:40;;;;;;;258.65;155.30;;;;;;;22.78;58.82;99113.50;5053842;28;20045;-62
2022/12/02 05:01:49;;;;;;;270.25;146.68;;;;;;;22.60;54.33;99127.84;5048099;28;20569;-63
2022/12/02 05:04:59;;;;;;;267.70;148.82;;;;;;;22.69;56.57;99126.16;4958266;28;20143;-62
2022/12/02 05:08:10;;;;;;;274.60;152.40;;;;;;;22.38;56.54;99120.88;4991123;28;20115;-63
2022/12/02 05:11:19;;;;;;;280.25;153.75;;;;;;;22.65;58.70;99125.09;5340439;23;20694;-60
2022/12/02 05:14:34;;;;;;;274.63;154.50;;;;;;;22.52;57.20;99118.31;4972361;28;20085;-59
2022/12/02 05:17:43;;;;;;;287.85;158.73;;;;;;;22.02;53.10;99112.00;4975935;28;20055;-54
2022/12/02 05:20:45;;;;;;;308.35;164.95;;;;;;;22.61;53.16;99119.38;4976005;28;20054;-57
2022/12/02 05:23:54;;;;;;;331.98;177.05;;;;;;;23.29;56.79;99128.72;4973756;28;20054;-60
2022/12/02 05:26:56;;;;;;;323.60;179.02;;;;;;;23.76;53.42;99118.94;4972584;28;20093;-59
2022/12/02 05:30:06;;;;;;;279.48;156.85;;;;;;;23.56;54.55;99120.00;4977740;28;20588;-61
2022/12/02 05:33:16;;;;;;;267.00;139.32;;;;;;;23.59;48.50;99102.94;4988232;28;20145;-62
2022/12/02 05:36:25;;;;;;;244.98;136.02;;;;;;;23.78;48.67;99103.06;4995123;28;20104;-58
2022/12/02 05:39:34;;;;;;;243.00;129.20;;;;;;;22.94;48.33;99106.00;4997112;28;20052;-63
2022/12/02 05:42:36;;;;;;;233.43;128.65;;;;;;;23.79;50.24;99098.41;4995183;28;20040;-61
2022/12/02 05:45:45;;;;;;;156.07;90.78;;;;;;;23.97;47.17;99097.63;4993999;28;20160;-60
2022/12/02 05:48:49;;;;;;;169.27;93.80;;;;;;;24.06;52.15;99092.31;4990767;28;20056;-68
2022/12/02 05:52:13;;;;;;;137.77;79.65;;;;;;;23.62;49.24;99105.13;4994077;28;20685;-66
2022/12/02 05:55:22;;;;;;;140.27;79.05;;;;;;;24.09;50.68;99093.66;4993395;28;20109;-68
2022/12/02 05:58:25;;;;;;;112.80;63.55;;;;;;;24.07;49.69;99093.13;4993170;28;20045;-70
2022/12/02 06:01:40;;;;;;;123.90;67.35;;;;;;;23.94;51.98;99109.19;4990163;28;20061;-65
2022/12/02 06:04:43;;;;;;;107.47;64.88;;;;;;;23.95;57.70;99102.59;4999889;28;20160;-65
2022/12/02 06:07:57;;;;;;;114.55;64.70;;;;;;;23.86;57.02;99095.31;4993654;28;20050;-64
2022/12/02 06:11:24;;;;;;;118.78;69.32;;;;;;;23.80;57.98;99089.06;4990709;28;20617;-63
2022/12/02 06:14:41;;;;;;;103.28;57.85;;;;;;;23.95;50.02;99086.13;4981305;28;20123;-64
2022/12/02 06:17:52;;;;;;;102.53;61.25;;;;;;;24.11;54.17;99077.72;4992984;28;20050;-65
2022/12/02 06:21:03;;;;;;;107.97;62.40;;;;;;;24.13;46.93;99064.53;4996010;28;20482;-67
2022/12/02 06:24:12;;;;;;;114.65;65.35;;;;;;;24.13;46.87;99070.00;4990646;28;20074;-64
2022/12/02 06:27:23;;;;;;;122.63;63.60;;;;;;;24.37;48.27;99070.75;4993265;28;20483;-62
2022/12/02 06:30:33;;;;;;;108.75;65.22;;;;;;;24.23;50.92;99061.66;4993954;28;20065;-64
2022/12/02 06:33:38;;;;;;;120.85;67.43;;;;;;;24.17;50.31;99052.69;4978440;28;20038;-64
2022/12/02 06:36:47;;;;;;;113.82;65.25;;;;;;;24.28;50.50;99052.53;4993181;28;20057;-64
2022/12/02 06:40:02;;;;;;;113.10;62.15;;;;;;;24.39;46.01;99049.34;4995220;28;20041;-63
2022/12/02 06:43:29;;;;;;;101.78;57.72;;;;;;;24.68;47.75;99047.56;4992952;28;20130;-63
2022/12/02 06:46:41;;;;;;;99.35;57.08;;;;;;;24.65;44.73;99039.91;4993818;28;20038;-66
2022/12/02 06:49:51;;;;;;;113.88;61.10;;;;;;;24.67;49.43;99030.28;4994745;28;20517;-65
2022/12/02 06:53:16;;;;;;;107.28;62.08;;;;;;;24.55;47.39;99021.69;4991030;28;20042;-66
2022/12/02 06:56:27;;;;;;;112.35;62.20;;;;;;;24.32;52.06;99017.91;4992310;28;20034;-65
2022/12/02 06:59:37;;;;;;;116.93;59.97;;;;;;;24.28;49.28;99016.88;5001092;28;20507;-64
2022/12/02 07:02:40;;;;;;;106.18;56.75;;;;;;;24.18;48.32;98998.63;4998209;28;20049;-65
2022/12/02 07:05:50;;;;;;;100.05;51.53;;;;;;;23.69;46.30;98994.34;5018120;28;20581;-67
2022/12/02 07:08:54;;;;;;;102.78;52.42;;;;;;;23.70;47.97;98993.25;5020615;28;20164;-62
2022/12/02 07:12:29;;;;;;;105.28;54.85;;;;;;;23.74;56.43;99005.25;5002155;28;20144;-62
2022/12/02 07:15:27;;;;;;;97.18;53.33;;;;;;;23.57;59.86;98995.59;5011259;28;20061;-64
2022/12/02 07:18:36;;;;;;;88.93;51.28;;;;;;;23.79;56.00;98988.78;5022423;28;20098;-63
2022/12/02 07:21:45;;;;;;;99.95;53.05;;;;;;;23.87;56.75;98984.56;5006978;28;20045;-62
2022/12/02 07:25:17;;;;;;;93.05;51.78;;;;;;;23.78;52.77;98976.16;5008084;28;20124;-64
2022/12/02 07:28:45;;;;;;;100.05;49.58;;;;;;;23.89;50.77;98963.97;5016847;28;20338;-65
2022/12/02 07:32:12;;;;;;;90.60;47.75;;;;;;;23.90;47.67;98957.34;5006791;28;20621;-65
2022/12/02 07:35:21;;;;;;;89.55;48.40;;;;;;;24.06;51.75;98959.88;5006281;28;20042;-67
2022/12/02 07:38:23;;;;;;;85.03;47.22;;;;;;;24.06;48.59;98954.38;5017626;28;20151;-68
2022/12/02 07:41:46;;;;;;;103.97;51.10;;;;;;;24.18;50.53;98949.28;5003994;28;20702;-68
2022/12/02 07:44:55;;;;;;;87.00;47.95;;;;;;;23.99;47.43;98944.63;5003462;28;20542;-65
2022/12/02 07:48:04;;;;;;;94.38;47.45;;;;;;;23.95;53.32;98937.28;5013403;28;20130;-68
2022/12/02 07:51:00;;;;;;;84.20;47.63;;;;;;;23.98;51.93;98929.31;5007273;28;20133;-66
2022/12/02 07:54:09;;;;;;;86.85;48.53;;;;;;;24.01;54.55;98927.88;5015840;28;20140;-65
2022/12/02 07:57:18;;;;;;;90.20;46.15;;;;;;;24.14;51.01;98913.41;4997806;28;20045;-64
2022/12/02 08:00:29;;;;;;;89.07;47.70;;;;;;;24.43;51.96;98910.47;5005735;28;20297;-65
2022/12/02 08:03:38;;;;;;;97.78;48.30;;;;;;;24.10;51.63;98901.41;5007978;28;20380;-62
2022/12/02 08:06:40;;;;;;;85.43;47.00;;;;;;;24.00;52.05;98896.09;4999737;28;20083;-62
2022/12/02 08:09:49;;;;;;;83.75;46.75;;;;;;;24.00;55.16;98898.84;5003013;28;20133;-61
2022/12/02 08:12:51;;;;;;;83.45;48.03;;;;;;;24.23;51.35;98888.88;5005060;28;20210;-65
2022/12/02 08:16:01;;;;;;;93.57;48.97;;;;;;;24.06;49.28;98883.09;5021527;28;20079;-63
2022/12/02 08:19:03;;;;;;;92.93;47.20;;;;;;;24.38;50.95;98880.38;5016428;28;20575;-66
2022/12/02 08:22:13;;;;;;;100.72;47.15;;;;;;;24.55;47.02;98879.00;5001571;28;20061;-67
2022/12/02 08:25:16;;;;;;;98.85;47.83;;;;;;;24.20;50.53;98876.56;5001934;28;20034;-65
2022/12/02 08:28:26;;;;;;;93.22;49.38;;;;;;;24.21;52.17;98874.66;4985578;28;20125;-63
2022/12/02 08:31:28;;;;;;;93.95;51.85;;;;;;;24.34;49.49;98873.03;4986277;28;20053;-61
2022/12/02 08:34:37;;;;;;;100.47;53.80;;;;;;;24.50;46.66;98870.88;5007477;28;20033;-61
2022/12/02 08:37:40;;;;;;;92.60;51.70;;;;;;;24.61;46.97;98872.31;5003449;28;20033;-66
2022/12/02 08:40:49;;;;;;;101.65;51.60;;;;;;;24.99;44.37;98878.47;5003992;28;20050;-64
2022/12/02 08:43:52;;;;;;;100.57;50.50;;;;;;;24.88;44.71;98866.03;5012370;28;20475;-61
2022/12/02 08:47:01;;;;;;;97.50;49.58;;;;;;;25.14;46.16;98860.84;5004822;28;20077;-61
2022/12/02 08:50:03;;;;;;;96.22;49.22;;;;;;;24.94;42.50;98864.00;4992268;28;20045;-60
2022/12/02 08:53:12;;;;;;;86.90;48.30;;;;;;;24.74;44.18;98852.28;5011224;28;20042;-60
2022/12/02 08:56:22;;;;;;;91.22;47.83;;;;;;;24.95;45.24;98851.91;4986086;28;20039;-61
2022/12/02 08:59:24;;;;;;;93.35;49.15;;;;;;;24.82;43.29;98842.53;5023462;28;20045;-63
2022/12/02 09:02:33;;;;;;;103.78;53.20;;;;;;;24.99;44.55;98836.44;5023138;28;20589;-62
2022/12/02 09:05:42;;;;;;;99.28;53.13;;;;;;;25.15;46.38;98836.94;5013461;28;20033;-59
2022/12/02 09:08:51;;;;;;;97.82;53.47;;;;;;;25.02;45.07;98831.16;5009753;28;20104;-64
2022/12/02 09:12:07;;;;;;;99.65;53.30;;;;;;;25.10;45.34;98835.09;4983477;28;20038;-62
2022/12/02 09:15:16;;;;;;;98.35;55.03;;;;;;;25.14;44.09;98833.38;4995404;28;20065;-62
2022/12/02 09:18:25;;;;;;;106.75;55.13;;;;;;;25.10;44.52;98834.31;5003659;28;20046;-64
2022/12/02 09:21:28;;;;;;;108.70;55.88;;;;;;;25.16;44.98;98833.88;5005020;28;20046;-66
2022/12/02 09:24:37;;;;;;;105.07;58.40;;;;;;;25.05;45.02;98828.91;5012562;28;20042;-66
2022/12/02 09:27:39;;;;;;;109.28;61.63;;;;;;;24.61;47.08;98822.91;5007997;28;20071;-62
2022/12/02 09:30:48;;;;;;;114.57;61.95;;;;;;;24.40;48.90;98827.94;5023401;28;20084;-65
2022/12/02 09:33:50;;;;;;;127.20;68.78;;;;;;;24.01;51.34;98827.25;5010100;28;20042;-63
2022/12/02 09:36:59;;;;;;;127.50;71.55;;;;;;;23.91;52.67;98821.94;4993259;28;20448;-63
2022/12/02 09:40:02;;;;;;;144.57;73.05;;;;;;;23.81;52.88;98813.91;4995344;28;20046;-63
2022/12/02 09:43:12;;;;;;;144.55;76.13;;;;;;;23.71;53.48;98819.50;5005908;28;20534;-63
2022/12/02 09:46:14;;;;;;;170.35;80.35;;;;;;;23.69;52.81;98819.00;4984341;28;20050;-64
2022/12/02 09:49:25;;;;;;;163.23;80.95;;;;;;;23.78;54.61;98807.06;4984516;28;20128;-65
2022/12/02 09:52:34;;;;;;;171.93;86.70;;;;;;;23.70;57.52;98794.03;5013420;28;20057;-67
2022/12/02 09:55:37;;;;;;;158.32;82.53;;;;;;;23.75;57.02;98790.38;4986093;28;20665;-64
2022/12/02 09:58:49;;;;;;;162.77;85.10;;;;;;;23.81;56.72;98794.72;5017686;28;20072;-67
2022/12/02 10:01:54;;;;;;;172.73;80.90;;;;;;;23.70;55.38;98790.50;5024667;28;20465;-65
2022/12/02 10:05:12;;;;;;;153.48;77.22;;;;;;;23.63;53.59;98788.91;5005746;28;20104;-63
2022/12/02 10:08:34;;;;;;;138.07;74.60;;;;;;;23.83;55.39;98787.00;5000384;28;20081;-67
2022/12/02 10:11:51;;;;;;;152.95;79.57;;;;;;;23.89;57.08;98790.47;5003475;28;20080;-63
2022/12/02 10:15:00;;;;;;;149.00;78.93;;;;;;;23.82;58.46;98796.34;5017011;28;20045;-64
2022/12/02 10:18:03;;;;;;;139.73;76.28;;;;;;;23.71;58.49;98790.16;5023511;28;20451;-64
2022/12/02 10:21:12;;;;;;;155.38;77.78;;;;;;;23.64;57.68;98797.97;4982943;28;20549;-66
2022/12/02 10:24:15;;;;;;;134.73;75.38;;;;;;;23.57;57.23;98801.06;4996541;28;20046;-67
2022/12/02 10:27:29;;;;;;;140.48;73.55;;;;;;;23.50;57.38;98800.63;4997682;28;20042;-64
2022/12/02 10:30:33;;;;;;;133.98;73.05;;;;;;;23.39;57.06;98799.19;4983964;28;20129;-62
2022/12/02 10:33:52;;;;;;;137.27;73.32;;;;;;;23.40;56.71;98801.59;4990085;28;20089;-64
2022/12/02 10:37:01;;;;;;;134.00;72.60;;;;;;;23.36;57.49;98813.44;5011131;28;20052;-65
2022/12/02 10:40:15;;;;;;;143.60;74.43;;;;;;;23.29;57.83;98799.31;5006793;28;20847;-65
2022/12/02 10:43:25;;;;;;;151.55;79.28;;;;;;;23.15;60.42;98805.50;5007308;28;20054;-65
2022/12/02 10:46:27;;;;;;;139.07;77.35;;;;;;;23.04;60.96;98809.50;5011286;28;20048;-62
2022/12/02 10:49:39;;;;;;;154.70;79.82;;;;;;;22.98;61.68;98816.94;5020592;28;20042;-61
2022/12/02 10:52:54;;;;;;;155.85;79.72;;;;;;;23.01;61.84;98804.59;5007106;28;20050;-64
2022/12/02 10:56:04;;;;;;;153.15;75.78;;;;;;;22.88;60.12;98806.13;5007482;28;20034;-62
2022/12/02 10:59:13;;;;;;;145.05;80.53;;;;;;;22.97;57.32;98800.81;5006780;28;20056;-63
2022/12/02 11:02:47;;;;;;;134.63;73.97;;;;;;;23.19;57.86;98797.53;5026526;28;20045;-64
2022/12/02 11:05:57;;;;;;;149.37;77.90;;;;;;;23.03;60.05;98799.66;5011572;28;20050;-64
2022/12/02 11:09:02;;;;;;;;;;;;;;;22.96;59.74;98797.25;4988970;28;20450;-66
2022/12/02 11:12:41;;;;;;;151.32;79.57;;;;;;;22.79;61.45;98797.72;4989117;28;19932;-65
2022/12/02 11:15:51;;;;;;;144.65;78.38;;;;;;;22.60;64.28;98805.06;5001216;28;20042;-64
2022/12/02 11:19:03;;;;;;;150.10;80.43;;;;;;;22.46;65.14;98815.91;4996781;28;20088;-65
2022/12/02 11:22:43;;;;;;;156.55;81.47;;;;;;;22.50;63.70;98814.22;4998067;28;20374;-66
2022/12/02 11:25:52;;;;;;;152.52;80.57;;;;;;;22.37;65.42;98812.97;4999490;28;20054;-64
2022/12/02 11:29:16;;;;;;;158.75;79.95;;;;;;;22.16;65.36;98808.78;4996720;28;20136;-64
2022/12/02 11:32:33;;;;;;;160.80;81.47;;;;;;;22.12;64.32;98796.81;5000115;28;20118;-65
2022/12/02 11:36:03;;;;;;;161.57;86.60;;;;;;;22.17;64.88;98803.03;4993929;28;20049;-65
2022/12/02 11:39:08;;;;;;;154.73;81.47;;;;;;;21.97;65.84;98804.03;4998028;28;20580;-61
2022/12/02 11:42:20;;;;;;;156.40;81.28;;;;;;;21.92;66.32;98811.44;4987310;28;20532;-67
2022/12/02 11:45:22;;;;;;;147.48;80.78;;;;;;;21.83;66.69;98811.25;5026546;28;20046;-64
2022/12/02 11:48:32;;;;;;;151.50;80.97;;;;;;;21.76;66.85;98813.50;4986754;28;20575;-60
2022/12/02 11:51:40;;;;;;;167.68;84.40;;;;;;;21.65;67.38;98819.06;4987917;28;20061;-64
2022/12/02 11:54:52;;;;;;;154.13;85.00;;;;;;;21.59;67.75;98814.72;4990894;28;20054;-63
2022/12/02 11:58:04;;;;;;;181.43;82.55;;;;;;;21.46;67.98;98815.38;5017469;28;20444;-63
2022/12/02 12:01:22;;;;;;;155.73;84.03;;;;;;;21.48;68.08;98813.16;4955984;28;10000707;-65
2022/12/02 12:04:30;;;;;;;164.98;82.43;;;;;;;21.31;68.77;98814.31;5015094;28;20317;-65
2022/12/02 12:07:47;;;;;;;159.02;84.60;;;;;;;21.31;68.13;98819.78;5013838;28;20038;-65
2022/12/02 12:11:22;;;;;;;160.82;83.18;;;;;;;21.27;69.00;98828.81;4983911;28;20185;-60
2022/12/02 12:14:24;;;;;;;164.10;81.43;;;;;;;21.62;67.06;98829.72;5004586;28;20041;-63
2022/12/02 12:17:36;;;;;;;160.20;84.78;;;;;;;21.36;68.12;98826.31;5006718;28;20529;-67
2022/12/02 12:20:42;;;;;;;174.88;86.25;;;;;;;21.21;68.35;98819.00;4994769;28;20054;-64
2022/12/02 12:23:52;;;;;;;156.38;84.60;;;;;;;21.00;69.02;98829.22;4991873;28;20124;-62
2022/12/02 12:27:31;;;;;;;165.32;86.45;;;;;;;20.99;69.18;98828.41;4994008;28;20049;-63
2022/12/02 12:30:40;;;;;;;169.77;84.22;;;;;;;20.84;68.99;98826.53;5001715;28;20128;-64
2022/12/02 12:33:49;;;;;;;167.25;86.88;;;;;;;20.79;68.55;98837.50;4996860;28;20683;-65
2022/12/02 12:36:52;;;;;;;173.32;90.50;;;;;;;20.71;69.22;98836.16;4977421;28;20544;-62
2022/12/02 12:40:01;;;;;;;162.80;86.22;;;;;;;20.60;69.43;98847.34;4999618;28;20050;-64
2022/12/02 12:43:11;;;;;;;168.35;86.65;;;;;;;20.79;68.13;98847.56;4998715;28;20089;-65
2022/12/02 12:46:20;;;;;;;172.25;88.43;;;;;;;20.92;67.91;98850.53;4995911;28;20546;-63
2022/12/02 12:49:22;;;;;;;167.15;89.75;;;;;;;20.67;69.13;98846.00;4997730;28;20045;-61
2022/12/02 12:52:32;;;;;;;172.63;88.97;;;;;;;20.61;69.71;98841.63;4997871;28;20140;-62
2022/12/02 12:55:34;;;;;;;176.40;88.85;;;;;;;20.69;69.35;98846.53;4995639;28;20090;-62
2022/12/02 12:58:43;;;;;;;159.65;89.63;;;;;;;20.60;69.85;98850.06;4990123;28;20737;-63
2022/12/02 13:01:46;;;;;;;163.02;87.72;;;;;;;20.70;68.54;98852.78;4997730;28;20513;-62
2022/12/02 13:04:56;;;;;;;165.55;89.13;;;;;;;20.71;68.05;98854.41;4999155;28;20062;-61
2022/12/02 13:07:59;;;;;;;177.95;93.03;;;;;;;20.63;68.53;98854.97;4998680;28;20042;-62
2022/12/02 13:11:18;;;;;;;198.25;95.15;;;;;;;20.45;69.42;98859.91;4996583;28;20073;-61
2022/12/02 13:14:27;;;;;;;195.02;100.57;;;;;;;20.35;70.36;98859.94;4995781;28;20060;-58
2022/12/02 13:17:36;;;;;;;187.15;97.97;;;;;;;20.34;70.46;98874.63;4995322;28;20045;-56
2022/12/02 13:20:40;;;;;;;191.68;94.75;;;;;;;20.26;70.80;98875.19;4998360;28;20647;-63
2022/12/02 13:23:50;;;;;;;180.38;92.90;;;;;;;20.26;70.62;98880.66;4997695;28;20045;-60
2022/12/02 13:26:52;;;;;;;178.80;94.65;;;;;;;20.35;70.66;98887.19;4998734;28;20045;-59
2022/12/02 13:30:02;;;;;;;196.02;98.40;;;;;;;20.28;70.66;98889.38;4991046;28;20185;-60
2022/12/02 13:33:04;;;;;;;188.82;99.07;;;;;;;20.25;70.19;98907.06;5004555;28;20111;-62
2022/12/02 13:36:14;;;;;;;194.07;98.32;;;;;;;20.12;70.68;98903.00;5017045;28;20121;-61
2022/12/02 13:39:16;;;;;;;187.90;99.60;;;;;;;20.15;70.78;98905.16;4997649;28;20050;-64
2022/12/02 13:42:25;;;;;;;196.48;99.20;;;;;;;20.13;71.72;98904.59;4981334;28;20037;-66
2022/12/02 13:45:29;;;;;;;202.18;97.45;;;;;;;20.05;71.29;98902.44;4998840;28;20475;-62
2022/12/02 13:48:39;;;;;;;191.18;95.97;;;;;;;20.07;71.52;98905.72;5003952;28;20048;-61
2022/12/02 13:51:41;;;;;;;214.45;103.90;;;;;;;20.05;71.73;98909.81;4984288;28;20042;-60
2022/12/02 13:54:50;;;;;;;185.75;95.60;;;;;;;19.93;71.99;98901.91;4996618;28;20076;-60
2022/12/02 13:57:54;;;;;;;191.18;101.75;;;;;;;19.98;72.12;98912.78;5017365;28;20048;-61
2022/12/02 14:01:03;;;;;;;186.55;100.95;;;;;;;19.99;72.03;98921.78;5022124;28;20154;-62
2022/12/02 14:04:05;;;;;;;201.45;102.43;;;;;;;20.03;71.79;98920.16;5008800;28;20432;-60
2022/12/02 14:07:14;;;;;;;203.30;102.80;;;;;;;20.01;72.07;98914.16;5005462;28;20044;-64
2022/12/02 14:10:16;;;;;;;198.57;100.18;;;;;;;20.00;72.12;98916.03;4672721;28;10000111;-63
2022/12/02 14:13:31;;;;;;;188.38;103.90;;;;;;;19.96;72.17;98912.22;4993921;28;20061;-65